sensor_id;sensor_type;location;lat;lon;timestamp;P1;durP1;ratioP1;P2;durP2;ratioP2
27491;SDS011;14927;51.210;6.838;2023-02-03T00:01:20;12.18;;;4.90;;
27491;SDS011;14927;51.210;6.838;2023-02-03T00:04:05;11.52;;;4.78;;
27491;SDS011;14927;51.210;6.838;2023-02-03T00:06:50;13.68;;;5.18;;
27491;SDS011;14927;51.210;6.838;2023-02-03T00:09:34;11.38;;;5.32;;
27491;SDS011;14927;51.210;6.838;2023-02-03T00:12:19;11.80;;;4.50;;
27491;SDS011;14927;51.210;6.838;2023-02-03T00:15:03;11.65;;;4.43;;
27491;SDS011;14927;51.210;6.838;2023-02-03T00:17:48;8.52;;;4.03;;
27491;SDS011;14927;51.210;6.838;2023-02-03T00:20:33;11.02;;;4.57;;
27491;SDS011;14927;51.210;6.838;2023-02-03T00:23:18;10.07;;;4.20;;
27491;SDS011;14927;51.210;6.838;2023-02-03T00:26:09;12.48;;;4.32;;
27491;SDS011;14927;51.210;6.838;2023-02-03T00:28:58;13.68;;;5.07;;
27491;SDS011;14927;51.210;6.838;2023-02-03T00:31:43;7.93;;;4.45;;
27491;SDS011;14927;51.210;6.838;2023-02-03T00:34:28;11.00;;;4.60;;
27491;SDS011;14927;51.210;6.838;2023-02-03T00:37:13;12.15;;;4.57;;
27491;SDS011;14927;51.210;6.838;2023-02-03T00:39:57;11.68;;;4.50;;
27491;SDS011;14927;51.210;6.838;2023-02-03T00:42:42;13.10;;;4.65;;
27491;SDS011;14927;51.210;6.838;2023-02-03T00:45:27;11.07;;;4.05;;
27491;SDS011;14927;51.210;6.838;2023-02-03T00:48:11;11.65;;;4.50;;
27491;SDS011;14927;51.210;6.838;2023-02-03T00:50:56;8.23;;;3.78;;
27491;SDS011;14927;51.210;6.838;2023-02-03T00:53:41;5.63;;;3.22;;
27491;SDS011;14927;51.210;6.838;2023-02-03T00:56:25;11.43;;;3.63;;
27491;SDS011;14927;51.210;6.838;2023-02-03T00:59:10;9.70;;;3.55;;
27491;SDS011;14927;51.210;6.838;2023-02-03T01:01:55;11.85;;;4.43;;
27491;SDS011;14927;51.210;6.838;2023-02-03T01:04:39;12.25;;;3.70;;
27491;SDS011;14927;51.210;6.838;2023-02-03T01:07:24;11.10;;;3.63;;
27491;SDS011;14927;51.210;6.838;2023-02-03T01:10:09;12.02;;;3.75;;
27491;SDS011;14927;51.210;6.838;2023-02-03T01:12:54;13.98;;;3.63;;
27491;SDS011;14927;51.210;6.838;2023-02-03T01:15:44;11.02;;;3.40;;
27491;SDS011;14927;51.210;6.838;2023-02-03T01:18:31;8.85;;;3.28;;
27491;SDS011;14927;51.210;6.838;2023-02-03T01:21:19;8.88;;;3.05;;
27491;SDS011;14927;51.210;6.838;2023-02-03T01:24:06;8.90;;;3.10;;
27491;SDS011;14927;51.210;6.838;2023-02-03T01:26:52;12.20;;;3.22;;
27491;SDS011;14927;51.210;6.838;2023-02-03T01:29:37;8.30;;;3.05;;
27491;SDS011;14927;51.210;6.838;2023-02-03T01:32:21;15.27;;;3.08;;
27491;SDS011;14927;51.210;6.838;2023-02-03T01:35:06;11.10;;;3.10;;
27491;SDS011;14927;51.210;6.838;2023-02-03T01:37:51;8.65;;;3.22;;
27491;SDS011;14927;51.210;6.838;2023-02-03T01:40:41;9.98;;;3.15;;
27491;SDS011;14927;51.210;6.838;2023-02-03T01:49:25;8.77;;;2.92;;
27491;SDS011;14927;51.210;6.838;2023-02-03T01:52:15;12.55;;;3.22;;
27491;SDS011;14927;51.210;6.838;2023-02-03T01:55:01;10.15;;;3.05;;
27491;SDS011;14927;51.210;6.838;2023-02-03T01:57:53;10.02;;;3.00;;
27491;SDS011;14927;51.210;6.838;2023-02-03T02:00:42;10.35;;;2.97;;
27491;SDS011;14927;51.210;6.838;2023-02-03T02:03:37;9.23;;;3.30;;
27491;SDS011;14927;51.210;6.838;2023-02-03T02:06:36;11.38;;;2.92;;
27491;SDS011;14927;51.210;6.838;2023-02-03T02:09:21;11.20;;;3.10;;
27491;SDS011;14927;51.210;6.838;2023-02-03T02:12:07;15.07;;;3.58;;
27491;SDS011;14927;51.210;6.838;2023-02-03T02:14:54;13.88;;;3.20;;
27491;SDS011;14927;51.210;6.838;2023-02-03T02:17:47;11.10;;;2.92;;
27491;SDS011;14927;51.210;6.838;2023-02-03T02:27:51;6.13;;;2.35;;
27491;SDS011;14927;51.210;6.838;2023-02-03T02:34:49;11.50;;;2.65;;
27491;SDS011;14927;51.210;6.838;2023-02-03T02:38:06;12.55;;;2.70;;
27491;SDS011;14927;51.210;6.838;2023-02-03T02:41:21;12.65;;;3.22;;
27491;SDS011;14927;51.210;6.838;2023-02-03T02:44:45;9.73;;;2.63;;
27491;SDS011;14927;51.210;6.838;2023-02-03T02:47:34;8.18;;;2.20;;
27491;SDS011;14927;51.210;6.838;2023-02-03T02:50:21;11.38;;;2.60;;
27491;SDS011;14927;51.210;6.838;2023-02-03T02:53:09;9.32;;;2.70;;
27491;SDS011;14927;51.210;6.838;2023-02-03T02:55:57;7.60;;;2.08;;
27491;SDS011;14927;51.210;6.838;2023-02-03T02:58:44;14.00;;;2.03;;
27491;SDS011;14927;51.210;6.838;2023-02-03T03:01:32;12.75;;;2.95;;
27491;SDS011;14927;51.210;6.838;2023-02-03T03:04:18;7.30;;;2.60;;
27491;SDS011;14927;51.210;6.838;2023-02-03T03:07:09;6.47;;;2.55;;
27491;SDS011;14927;51.210;6.838;2023-02-03T03:10:06;11.10;;;2.70;;
27491;SDS011;14927;51.210;6.838;2023-02-03T03:13:05;5.82;;;2.47;;
27491;SDS011;14927;51.210;6.838;2023-02-03T03:15:52;5.75;;;2.00;;
27491;SDS011;14927;51.210;6.838;2023-02-03T03:18:51;6.45;;;2.40;;
27491;SDS011;14927;51.210;6.838;2023-02-03T03:21:40;9.85;;;2.45;;
27491;SDS011;14927;51.210;6.838;2023-02-03T03:24:34;6.50;;;2.22;;
27491;SDS011;14927;51.210;6.838;2023-02-03T03:27:31;5.95;;;2.50;;
27491;SDS011;14927;51.210;6.838;2023-02-03T03:30:54;9.88;;;2.40;;
27491;SDS011;14927;51.210;6.838;2023-02-03T03:33:31;7.05;;;2.22;;
27491;SDS011;14927;51.210;6.838;2023-02-03T03:45:24;7.32;;;2.58;;
27491;SDS011;14927;51.210;6.838;2023-02-03T03:48:25;8.57;;;3.28;;
27491;SDS011;14927;51.210;6.838;2023-02-03T03:51:50;13.88;;;3.35;;
27491;SDS011;14927;51.210;6.838;2023-02-03T03:54:40;11.73;;;3.40;;
27491;SDS011;14927;51.210;6.838;2023-02-03T03:57:28;7.38;;;3.00;;
27491;SDS011;14927;51.210;6.838;2023-02-03T04:00:34;9.00;;;2.95;;
27491;SDS011;14927;51.210;6.838;2023-02-03T04:03:23;8.18;;;3.20;;
27491;SDS011;14927;51.210;6.838;2023-02-03T04:06:15;6.82;;;3.40;;
27491;SDS011;14927;51.210;6.838;2023-02-03T04:09:00;7.78;;;3.03;;
27491;SDS011;14927;51.210;6.838;2023-02-03T04:11:45;8.23;;;2.95;;
27491;SDS011;14927;51.210;6.838;2023-02-03T04:14:44;11.20;;;3.17;;
27491;SDS011;14927;51.210;6.838;2023-02-03T04:17:29;10.20;;;3.47;;
27491;SDS011;14927;51.210;6.838;2023-02-03T04:20:16;12.27;;;3.78;;
27491;SDS011;14927;51.210;6.838;2023-02-03T04:23:01;8.57;;;3.08;;
27491;SDS011;14927;51.210;6.838;2023-02-03T04:25:45;8.75;;;2.60;;
27491;SDS011;14927;51.210;6.838;2023-02-03T04:28:30;7.95;;;2.92;;
27491;SDS011;14927;51.210;6.838;2023-02-03T04:31:15;6.60;;;2.63;;
27491;SDS011;14927;51.210;6.838;2023-02-03T04:34:00;11.48;;;3.17;;
27491;SDS011;14927;51.210;6.838;2023-02-03T04:36:44;12.70;;;3.30;;
27491;SDS011;14927;51.210;6.838;2023-02-03T04:39:29;10.23;;;2.78;;
27491;SDS011;14927;51.210;6.838;2023-02-03T04:42:14;9.50;;;3.03;;
27491;SDS011;14927;51.210;6.838;2023-02-03T04:44:58;8.30;;;2.67;;
27491;SDS011;14927;51.210;6.838;2023-02-03T04:47:43;11.00;;;2.63;;
27491;SDS011;14927;51.210;6.838;2023-02-03T04:50:29;12.15;;;2.58;;
27491;SDS011;14927;51.210;6.838;2023-02-03T04:53:14;9.85;;;2.63;;
27491;SDS011;14927;51.210;6.838;2023-02-03T04:55:58;9.48;;;2.60;;
27491;SDS011;14927;51.210;6.838;2023-02-03T04:58:43;9.98;;;2.45;;
27491;SDS011;14927;51.210;6.838;2023-02-03T05:01:27;8.68;;;2.75;;
27491;SDS011;14927;51.210;6.838;2023-02-03T05:04:12;7.20;;;2.47;;
27491;SDS011;14927;51.210;6.838;2023-02-03T05:06:56;11.18;;;2.45;;
27491;SDS011;14927;51.210;6.838;2023-02-03T05:09:41;9.60;;;2.40;;
27491;SDS011;14927;51.210;6.838;2023-02-03T05:12:26;7.90;;;2.65;;
27491;SDS011;14927;51.210;6.838;2023-02-03T05:15:10;9.65;;;2.63;;
27491;SDS011;14927;51.210;6.838;2023-02-03T05:17:55;10.98;;;2.47;;
27491;SDS011;14927;51.210;6.838;2023-02-03T05:20:40;8.52;;;3.03;;
27491;SDS011;14927;51.210;6.838;2023-02-03T05:23:24;10.50;;;2.53;;
27491;SDS011;14927;51.210;6.838;2023-02-03T05:26:09;9.98;;;2.47;;
27491;SDS011;14927;51.210;6.838;2023-02-03T05:28:53;7.07;;;2.20;;
27491;SDS011;14927;51.210;6.838;2023-02-03T05:31:38;7.63;;;2.30;;
27491;SDS011;14927;51.210;6.838;2023-02-03T05:34:23;9.35;;;2.30;;
27491;SDS011;14927;51.210;6.838;2023-02-03T05:37:07;7.40;;;2.22;;
27491;SDS011;14927;51.210;6.838;2023-02-03T05:39:52;8.88;;;2.20;;
27491;SDS011;14927;51.210;6.838;2023-02-03T05:42:37;9.18;;;2.13;;
27491;SDS011;14927;51.210;6.838;2023-02-03T05:45:21;9.27;;;2.08;;
27491;SDS011;14927;51.210;6.838;2023-02-03T05:48:06;8.32;;;2.30;;
27491;SDS011;14927;51.210;6.838;2023-02-03T05:50:50;10.20;;;2.00;;
27491;SDS011;14927;51.210;6.838;2023-02-03T05:53:35;8.32;;;1.88;;
27491;SDS011;14927;51.210;6.838;2023-02-03T05:56:19;7.78;;;2.03;;
27491;SDS011;14927;51.210;6.838;2023-02-03T05:59:04;7.45;;;1.92;;
27491;SDS011;14927;51.210;6.838;2023-02-03T06:01:49;11.70;;;2.25;;
27491;SDS011;14927;51.210;6.838;2023-02-03T06:04:33;9.68;;;2.10;;
27491;SDS011;14927;51.210;6.838;2023-02-03T06:07:18;6.05;;;1.80;;
27491;SDS011;14927;51.210;6.838;2023-02-03T06:10:03;6.78;;;1.45;;
27491;SDS011;14927;51.210;6.838;2023-02-03T06:12:48;8.65;;;1.88;;
27491;SDS011;14927;51.210;6.838;2023-02-03T06:15:33;7.68;;;1.80;;
27491;SDS011;14927;51.210;6.838;2023-02-03T06:18:17;4.72;;;1.45;;
27491;SDS011;14927;51.210;6.838;2023-02-03T06:21:02;9.52;;;1.67;;
27491;SDS011;14927;51.210;6.838;2023-02-03T06:23:46;4.88;;;1.55;;
27491;SDS011;14927;51.210;6.838;2023-02-03T06:26:31;6.53;;;1.52;;
27491;SDS011;14927;51.210;6.838;2023-02-03T06:29:15;6.95;;;2.15;;
27491;SDS011;14927;51.210;6.838;2023-02-03T06:32:00;7.72;;;1.88;;
27491;SDS011;14927;51.210;6.838;2023-02-03T06:34:45;8.55;;;1.75;;
27491;SDS011;14927;51.210;6.838;2023-02-03T06:37:30;7.18;;;1.80;;
27491;SDS011;14927;51.210;6.838;2023-02-03T06:40:15;4.88;;;1.27;;
27491;SDS011;14927;51.210;6.838;2023-02-03T06:42:59;7.20;;;1.67;;
27491;SDS011;14927;51.210;6.838;2023-02-03T06:45:44;4.95;;;1.50;;
27491;SDS011;14927;51.210;6.838;2023-02-03T06:48:29;6.68;;;1.60;;
27491;SDS011;14927;51.210;6.838;2023-02-03T06:51:14;9.65;;;1.73;;
27491;SDS011;14927;51.210;6.838;2023-02-03T06:53:59;13.10;;;2.13;;
27491;SDS011;14927;51.210;6.838;2023-02-03T06:56:44;6.85;;;1.73;;
27491;SDS011;14927;51.210;6.838;2023-02-03T06:59:29;6.40;;;1.35;;
27491;SDS011;14927;51.210;6.838;2023-02-03T07:02:13;7.60;;;1.75;;
27491;SDS011;14927;51.210;6.838;2023-02-03T07:04:58;11.25;;;1.60;;
27491;SDS011;14927;51.210;6.838;2023-02-03T07:07:43;10.63;;;2.45;;
27491;SDS011;14927;51.210;6.838;2023-02-03T07:10:27;7.32;;;2.17;;
27491;SDS011;14927;51.210;6.838;2023-02-03T07:13:12;7.15;;;1.55;;
27491;SDS011;14927;51.210;6.838;2023-02-03T07:15:56;7.65;;;1.75;;
27491;SDS011;14927;51.210;6.838;2023-02-03T07:18:41;5.00;;;1.50;;
27491;SDS011;14927;51.210;6.838;2023-02-03T07:21:25;7.28;;;1.40;;
27491;SDS011;14927;51.210;6.838;2023-02-03T07:24:10;3.90;;;1.40;;
27491;SDS011;14927;51.210;6.838;2023-02-03T07:26:55;6.75;;;1.42;;
27491;SDS011;14927;51.210;6.838;2023-02-03T07:29:39;8.50;;;2.00;;
27491;SDS011;14927;51.210;6.838;2023-02-03T07:32:24;8.60;;;2.25;;
27491;SDS011;14927;51.210;6.838;2023-02-03T07:35:09;7.07;;;1.80;;
27491;SDS011;14927;51.210;6.838;2023-02-03T07:37:53;6.35;;;1.42;;
27491;SDS011;14927;51.210;6.838;2023-02-03T07:40:38;7.82;;;1.48;;
27491;SDS011;14927;51.210;6.838;2023-02-03T07:43:23;6.05;;;1.35;;
27491;SDS011;14927;51.210;6.838;2023-02-03T07:46:08;9.65;;;1.83;;
27491;SDS011;14927;51.210;6.838;2023-02-03T07:48:52;7.00;;;1.83;;
27491;SDS011;14927;51.210;6.838;2023-02-03T07:51:37;5.00;;;1.33;;
27491;SDS011;14927;51.210;6.838;2023-02-03T07:54:22;8.68;;;1.88;;
27491;SDS011;14927;51.210;6.838;2023-02-03T07:57:06;8.15;;;1.40;;
27491;SDS011;14927;51.210;6.838;2023-02-03T07:59:51;8.95;;;2.20;;
27491;SDS011;14927;51.210;6.838;2023-02-03T08:02:35;7.28;;;1.85;;
27491;SDS011;14927;51.210;6.838;2023-02-03T08:05:20;6.57;;;1.55;;
27491;SDS011;14927;51.210;6.838;2023-02-03T08:08:05;5.15;;;1.48;;
27491;SDS011;14927;51.210;6.838;2023-02-03T08:10:49;7.57;;;1.73;;
27491;SDS011;14927;51.210;6.838;2023-02-03T08:13:34;7.43;;;1.90;;
27491;SDS011;14927;51.210;6.838;2023-02-03T08:16:18;8.00;;;1.95;;
27491;SDS011;14927;51.210;6.838;2023-02-03T08:19:03;8.48;;;1.80;;
27491;SDS011;14927;51.210;6.838;2023-02-03T08:21:48;4.43;;;1.50;;
27491;SDS011;14927;51.210;6.838;2023-02-03T08:24:33;11.60;;;1.92;;
27491;SDS011;14927;51.210;6.838;2023-02-03T08:27:19;6.50;;;1.50;;
27491;SDS011;14927;51.210;6.838;2023-02-03T08:30:06;7.45;;;1.63;;
27491;SDS011;14927;51.210;6.838;2023-02-03T08:32:58;7.00;;;1.85;;
27491;SDS011;14927;51.210;6.838;2023-02-03T08:35:46;8.32;;;1.65;;
27491;SDS011;14927;51.210;6.838;2023-02-03T08:38:32;13.27;;;2.00;;
27491;SDS011;14927;51.210;6.838;2023-02-03T08:41:17;7.28;;;2.10;;
27491;SDS011;14927;51.210;6.838;2023-02-03T08:44:02;6.40;;;2.00;;
27491;SDS011;14927;51.210;6.838;2023-02-03T08:46:50;7.70;;;2.10;;
27491;SDS011;14927;51.210;6.838;2023-02-03T08:49:36;5.40;;;1.75;;
27491;SDS011;14927;51.210;6.838;2023-02-03T08:52:22;5.28;;;1.63;;
27491;SDS011;14927;51.210;6.838;2023-02-03T08:55:07;11.63;;;2.25;;
27491;SDS011;14927;51.210;6.838;2023-02-03T08:57:51;5.13;;;2.33;;
27491;SDS011;14927;51.210;6.838;2023-02-03T09:00:36;8.55;;;2.53;;
27491;SDS011;14927;51.210;6.838;2023-02-03T09:03:21;8.82;;;2.17;;
27491;SDS011;14927;51.210;6.838;2023-02-03T09:06:06;10.45;;;2.80;;
27491;SDS011;14927;51.210;6.838;2023-02-03T09:08:51;16.90;;;3.03;;
27491;SDS011;14927;51.210;6.838;2023-02-03T09:11:36;7.78;;;2.72;;
27491;SDS011;14927;51.210;6.838;2023-02-03T09:14:21;6.70;;;2.60;;
27491;SDS011;14927;51.210;6.838;2023-02-03T09:17:07;5.00;;;2.65;;
27491;SDS011;14927;51.210;6.838;2023-02-03T09:19:52;7.32;;;2.35;;
27491;SDS011;14927;51.210;6.838;2023-02-03T09:22:37;6.95;;;2.20;;
27491;SDS011;14927;51.210;6.838;2023-02-03T09:25:21;6.72;;;3.28;;
27491;SDS011;14927;51.210;6.838;2023-02-03T09:28:06;5.53;;;2.72;;
27491;SDS011;14927;51.210;6.838;2023-02-03T09:30:50;6.82;;;2.70;;
27491;SDS011;14927;51.210;6.838;2023-02-03T09:33:35;4.80;;;3.03;;
27491;SDS011;14927;51.210;6.838;2023-02-03T09:36:20;8.00;;;3.15;;
27491;SDS011;14927;51.210;6.838;2023-02-03T09:39:05;5.90;;;2.67;;
27491;SDS011;14927;51.210;6.838;2023-02-03T09:41:53;7.38;;;3.10;;
27491;SDS011;14927;51.210;6.838;2023-02-03T09:44:43;5.70;;;2.90;;
27491;SDS011;14927;51.210;6.838;2023-02-03T09:47:49;9.93;;;3.83;;
27491;SDS011;14927;51.210;6.838;2023-02-03T09:50:37;7.25;;;3.42;;
27491;SDS011;14927;51.210;6.838;2023-02-03T09:56:27;3.45;;;3.08;;
27491;SDS011;14927;51.210;6.838;2023-02-03T09:59:15;9.52;;;3.47;;
27491;SDS011;14927;51.210;6.838;2023-02-03T10:18:12;9.98;;;3.78;;
27491;SDS011;14927;51.210;6.838;2023-02-03T10:24:35;7.75;;;4.50;;
27491;SDS011;14927;51.210;6.838;2023-02-03T10:27:26;8.43;;;4.20;;
27491;SDS011;14927;51.210;6.838;2023-02-03T10:33:09;5.90;;;4.55;;
27491;SDS011;14927;51.210;6.838;2023-02-03T10:42:23;8.98;;;5.32;;
27491;SDS011;14927;51.210;6.838;2023-02-03T10:45:09;17.88;;;5.35;;
27491;SDS011;14927;51.210;6.838;2023-02-03T10:47:55;8.70;;;4.75;;
27491;SDS011;14927;51.210;6.838;2023-02-03T10:50:43;9.48;;;5.00;;
27491;SDS011;14927;51.210;6.838;2023-02-03T10:53:33;10.10;;;5.40;;
27491;SDS011;14927;51.210;6.838;2023-02-03T10:56:20;8.43;;;5.13;;
27491;SDS011;14927;51.210;6.838;2023-02-03T10:59:21;6.57;;;5.03;;
27491;SDS011;14927;51.210;6.838;2023-02-03T11:02:23;8.75;;;5.43;;
27491;SDS011;14927;51.210;6.838;2023-02-03T11:07:59;9.18;;;5.32;;
27491;SDS011;14927;51.210;6.838;2023-02-03T11:10:44;12.45;;;5.28;;
27491;SDS011;14927;51.210;6.838;2023-02-03T11:13:29;13.00;;;5.65;;
27491;SDS011;14927;51.210;6.838;2023-02-03T11:16:14;8.88;;;5.45;;
27491;SDS011;14927;51.210;6.838;2023-02-03T11:19:03;8.70;;;5.28;;
27491;SDS011;14927;51.210;6.838;2023-02-03T11:21:51;11.38;;;5.70;;
27491;SDS011;14927;51.210;6.838;2023-02-03T11:24:40;7.75;;;5.53;;
27491;SDS011;14927;51.210;6.838;2023-02-03T11:27:25;10.43;;;5.70;;
27491;SDS011;14927;51.210;6.838;2023-02-03T11:33:21;9.95;;;5.65;;
27491;SDS011;14927;51.210;6.838;2023-02-03T11:36:09;11.00;;;5.75;;
27491;SDS011;14927;51.210;6.838;2023-02-03T11:42:00;12.80;;;6.28;;
27491;SDS011;14927;51.210;6.838;2023-02-03T11:44:46;8.45;;;5.40;;
27491;SDS011;14927;51.210;6.838;2023-02-03T11:47:30;7.85;;;5.68;;
27491;SDS011;14927;51.210;6.838;2023-02-03T11:50:35;7.97;;;5.45;;
27491;SDS011;14927;51.210;6.838;2023-02-03T12:09:25;14.80;;;5.20;;
27491;SDS011;14927;51.210;6.838;2023-02-03T12:22:12;12.38;;;4.78;;
27491;SDS011;14927;51.210;6.838;2023-02-03T12:28:29;12.82;;;4.45;;
27491;SDS011;14927;51.210;6.838;2023-02-03T12:37:22;9.02;;;3.17;;
27491;SDS011;14927;51.210;6.838;2023-02-03T12:43:20;7.30;;;3.60;;
27491;SDS011;14927;51.210;6.838;2023-02-03T12:46:39;10.40;;;2.92;;
27491;SDS011;14927;51.210;6.838;2023-02-03T12:49:41;9.70;;;3.17;;
27491;SDS011;14927;51.210;6.838;2023-02-03T12:52:37;12.55;;;2.88;;
27491;SDS011;14927;51.210;6.838;2023-02-03T12:55:39;6.20;;;2.85;;
27491;SDS011;14927;51.210;6.838;2023-02-03T12:58:39;12.53;;;3.13;;
27491;SDS011;14927;51.210;6.838;2023-02-03T13:01:33;7.03;;;2.60;;
27491;SDS011;14927;51.210;6.838;2023-02-03T13:04:37;13.75;;;2.90;;
27491;SDS011;14927;51.210;6.838;2023-02-03T13:07:48;10.23;;;2.78;;
27491;SDS011;14927;51.210;6.838;2023-02-03T13:10:49;6.18;;;2.33;;
27491;SDS011;14927;51.210;6.838;2023-02-03T13:13:55;11.48;;;2.97;;
27491;SDS011;14927;51.210;6.838;2023-02-03T13:16:52;13.18;;;2.97;;
27491;SDS011;14927;51.210;6.838;2023-02-03T13:19:43;8.80;;;2.50;;
27491;SDS011;14927;51.210;6.838;2023-02-03T13:22:32;14.63;;;3.00;;
27491;SDS011;14927;51.210;6.838;2023-02-03T13:25:24;10.32;;;2.50;;
27491;SDS011;14927;51.210;6.838;2023-02-03T13:48:21;8.98;;;2.63;;
27491;SDS011;14927;51.210;6.838;2023-02-03T13:51:17;10.98;;;2.72;;
27491;SDS011;14927;51.210;6.838;2023-02-03T13:54:07;12.50;;;3.13;;
27491;SDS011;14927;51.210;6.838;2023-02-03T13:57:30;10.75;;;2.42;;
27491;SDS011;14927;51.210;6.838;2023-02-03T14:01:02;12.77;;;2.67;;
27491;SDS011;14927;51.210;6.838;2023-02-03T14:06:53;7.60;;;2.25;;
27491;SDS011;14927;51.210;6.838;2023-02-03T14:15:12;13.23;;;2.63;;
27491;SDS011;14927;51.210;6.838;2023-02-03T14:21:09;8.45;;;2.47;;
27491;SDS011;14927;51.210;6.838;2023-02-03T14:23:58;9.65;;;2.47;;
27491;SDS011;14927;51.210;6.838;2023-02-03T14:26:52;6.82;;;2.40;;
27491;SDS011;14927;51.210;6.838;2023-02-03T14:29:37;15.85;;;3.05;;
27491;SDS011;14927;51.210;6.838;2023-02-03T14:32:22;9.98;;;2.95;;
27491;SDS011;14927;51.210;6.838;2023-02-03T14:35:14;8.93;;;2.97;;
27491;SDS011;14927;51.210;6.838;2023-02-03T14:38:03;11.80;;;2.95;;
27491;SDS011;14927;51.210;6.838;2023-02-03T14:40:55;8.38;;;3.10;;
27491;SDS011;14927;51.210;6.838;2023-02-03T14:43:49;11.57;;;2.60;;
27491;SDS011;14927;51.210;6.838;2023-02-03T14:46:51;7.45;;;2.20;;
27491;SDS011;14927;51.210;6.838;2023-02-03T14:54:00;10.13;;;2.92;;
27491;SDS011;14927;51.210;6.838;2023-02-03T14:57:18;8.80;;;3.22;;
27491;SDS011;14927;51.210;6.838;2023-02-03T15:00:26;10.15;;;2.85;;
27491;SDS011;14927;51.210;6.838;2023-02-03T15:03:17;10.30;;;2.83;;
27491;SDS011;14927;51.210;6.838;2023-02-03T15:06:05;10.55;;;2.30;;
27491;SDS011;14927;51.210;6.838;2023-02-03T15:08:49;10.93;;;3.20;;
27491;SDS011;14927;51.210;6.838;2023-02-03T15:11:42;7.80;;;2.10;;
27491;SDS011;14927;51.210;6.838;2023-02-03T15:14:28;5.18;;;2.10;;
27491;SDS011;14927;51.210;6.838;2023-02-03T15:17:20;5.78;;;2.30;;
27491;SDS011;14927;51.210;6.838;2023-02-03T15:20:28;8.27;;;2.47;;
27491;SDS011;14927;51.210;6.838;2023-02-03T15:23:30;10.73;;;2.38;;
27491;SDS011;14927;51.210;6.838;2023-02-03T15:26:25;13.85;;;3.05;;
27491;SDS011;14927;51.210;6.838;2023-02-03T15:29:16;13.00;;;2.83;;
27491;SDS011;14927;51.210;6.838;2023-02-03T15:35:16;16.33;;;2.83;;
27491;SDS011;14927;51.210;6.838;2023-02-03T15:38:04;13.10;;;3.22;;
27491;SDS011;14927;51.210;6.838;2023-02-03T15:40:55;10.40;;;2.45;;
27491;SDS011;14927;51.210;6.838;2023-02-03T15:43:42;21.02;;;3.00;;
27491;SDS011;14927;51.210;6.838;2023-02-03T15:46:34;12.85;;;2.50;;
27491;SDS011;14927;51.210;6.838;2023-02-03T15:49:26;16.40;;;3.50;;
27491;SDS011;14927;51.210;6.838;2023-02-03T15:52:20;17.27;;;3.42;;
27491;SDS011;14927;51.210;6.838;2023-02-03T15:55:50;15.55;;;3.45;;
27491;SDS011;14927;51.210;6.838;2023-02-03T15:58:24;16.65;;;3.42;;
27491;SDS011;14927;51.210;6.838;2023-02-03T16:01:12;15.65;;;3.70;;
27491;SDS011;14927;51.210;6.838;2023-02-03T16:04:08;18.67;;;3.33;;
27491;SDS011;14927;51.210;6.838;2023-02-03T16:06:55;14.95;;;3.25;;
27491;SDS011;14927;51.210;6.838;2023-02-03T16:09:40;20.67;;;3.88;;
27491;SDS011;14927;51.210;6.838;2023-02-03T16:12:25;16.08;;;3.00;;
27491;SDS011;14927;51.210;6.838;2023-02-03T16:15:20;18.90;;;3.58;;
27491;SDS011;14927;51.210;6.838;2023-02-03T16:18:15;19.13;;;3.78;;
27491;SDS011;14927;51.210;6.838;2023-02-03T16:21:00;16.27;;;3.72;;
27491;SDS011;14927;51.210;6.838;2023-02-03T16:23:50;18.67;;;3.13;;
27491;SDS011;14927;51.210;6.838;2023-02-03T16:26:35;24.63;;;3.55;;
27491;SDS011;14927;51.210;6.838;2023-02-03T16:29:27;19.10;;;3.58;;
27491;SDS011;14927;51.210;6.838;2023-02-03T16:32:31;21.48;;;3.58;;
27491;SDS011;14927;51.210;6.838;2023-02-03T16:35:34;17.70;;;3.85;;
27491;SDS011;14927;51.210;6.838;2023-02-03T16:38:37;18.55;;;3.70;;
27491;SDS011;14927;51.210;6.838;2023-02-03T16:41:49;17.92;;;3.95;;
27491;SDS011;14927;51.210;6.838;2023-02-03T16:44:53;18.85;;;4.10;;
27491;SDS011;14927;51.210;6.838;2023-02-03T16:47:57;19.85;;;3.70;;
27491;SDS011;14927;51.210;6.838;2023-02-03T16:51:02;14.55;;;3.28;;
27491;SDS011;14927;51.210;6.838;2023-02-03T16:53:53;15.00;;;3.50;;
27491;SDS011;14927;51.210;6.838;2023-02-03T16:56:38;21.33;;;4.35;;
27491;SDS011;14927;51.210;6.838;2023-02-03T16:59:23;14.80;;;3.20;;
27491;SDS011;14927;51.210;6.838;2023-02-03T17:02:09;16.38;;;3.67;;
27491;SDS011;14927;51.210;6.838;2023-02-03T17:04:54;15.27;;;3.67;;
27491;SDS011;14927;51.210;6.838;2023-02-03T17:07:38;16.67;;;4.32;;
27491;SDS011;14927;51.210;6.838;2023-02-03T17:10:23;18.05;;;4.15;;
27491;SDS011;14927;51.210;6.838;2023-02-03T17:13:08;21.10;;;3.83;;
27491;SDS011;14927;51.210;6.838;2023-02-03T17:15:53;16.90;;;3.45;;
27491;SDS011;14927;51.210;6.838;2023-02-03T17:18:38;12.75;;;3.15;;
27491;SDS011;14927;51.210;6.838;2023-02-03T17:21:24;18.02;;;3.10;;
27491;SDS011;14927;51.210;6.838;2023-02-03T17:24:11;19.20;;;3.90;;
27491;SDS011;14927;51.210;6.838;2023-02-03T17:26:56;16.98;;;3.75;;
27491;SDS011;14927;51.210;6.838;2023-02-03T17:29:41;13.60;;;3.55;;
27491;SDS011;14927;51.210;6.838;2023-02-03T17:32:26;20.02;;;3.85;;
27491;SDS011;14927;51.210;6.838;2023-02-03T17:35:13;16.35;;;3.13;;
27491;SDS011;14927;51.210;6.838;2023-02-03T17:37:57;14.45;;;2.88;;
27491;SDS011;14927;51.210;6.838;2023-02-03T17:40:42;19.15;;;3.30;;
27491;SDS011;14927;51.210;6.838;2023-02-03T17:43:27;15.90;;;3.40;;
27491;SDS011;14927;51.210;6.838;2023-02-03T17:46:17;15.43;;;3.65;;
27491;SDS011;14927;51.210;6.838;2023-02-03T17:49:05;16.63;;;3.45;;
27491;SDS011;14927;51.210;6.838;2023-02-03T17:51:58;19.98;;;4.00;;
27491;SDS011;14927;51.210;6.838;2023-02-03T17:54:43;19.05;;;3.50;;
27491;SDS011;14927;51.210;6.838;2023-02-03T17:57:30;16.88;;;3.42;;
27491;SDS011;14927;51.210;6.838;2023-02-03T18:00:15;14.63;;;3.35;;
27491;SDS011;14927;51.210;6.838;2023-02-03T18:03:00;13.90;;;3.40;;
27491;SDS011;14927;51.210;6.838;2023-02-03T18:05:49;21.33;;;3.88;;
27491;SDS011;14927;51.210;6.838;2023-02-03T18:08:34;22.70;;;3.85;;
27491;SDS011;14927;51.210;6.838;2023-02-03T18:11:19;17.73;;;3.88;;
27491;SDS011;14927;51.210;6.838;2023-02-03T18:14:04;20.85;;;3.53;;
27491;SDS011;14927;51.210;6.838;2023-02-03T18:16:49;15.05;;;4.25;;
27491;SDS011;14927;51.210;6.838;2023-02-03T18:19:33;20.08;;;4.20;;
27491;SDS011;14927;51.210;6.838;2023-02-03T18:22:18;24.35;;;4.95;;
27491;SDS011;14927;51.210;6.838;2023-02-03T18:25:03;19.90;;;4.70;;
27491;SDS011;14927;51.210;6.838;2023-02-03T18:27:52;20.73;;;4.15;;
27491;SDS011;14927;51.210;6.838;2023-02-03T18:30:37;23.20;;;3.88;;
27491;SDS011;14927;51.210;6.838;2023-02-03T18:33:22;20.10;;;4.75;;
27491;SDS011;14927;51.210;6.838;2023-02-03T18:36:06;21.38;;;4.07;;
27491;SDS011;14927;51.210;6.838;2023-02-03T18:38:51;15.68;;;3.78;;
27491;SDS011;14927;51.210;6.838;2023-02-03T18:41:36;22.60;;;4.38;;
27491;SDS011;14927;51.210;6.838;2023-02-03T18:44:21;19.83;;;4.60;;
27491;SDS011;14927;51.210;6.838;2023-02-03T18:47:09;16.63;;;4.38;;
27491;SDS011;14927;51.210;6.838;2023-02-03T18:49:53;20.55;;;3.95;;
27491;SDS011;14927;51.210;6.838;2023-02-03T18:52:41;23.52;;;3.80;;
27491;SDS011;14927;51.210;6.838;2023-02-03T18:55:28;26.50;;;4.72;;
27491;SDS011;14927;51.210;6.838;2023-02-03T18:58:13;22.50;;;4.32;;
27491;SDS011;14927;51.210;6.838;2023-02-03T19:00:58;20.88;;;3.92;;
27491;SDS011;14927;51.210;6.838;2023-02-03T19:03:43;20.33;;;4.75;;
27491;SDS011;14927;51.210;6.838;2023-02-03T19:06:28;20.95;;;4.03;;
27491;SDS011;14927;51.210;6.838;2023-02-03T19:09:14;23.73;;;5.25;;
27491;SDS011;14927;51.210;6.838;2023-02-03T19:12:00;17.08;;;3.70;;
27491;SDS011;14927;51.210;6.838;2023-02-03T19:14:45;21.30;;;4.18;;